sensor_id;sensor_type;location;lat;lon;timestamp;temperature;humidity
1800;DHT22;919;48.274;12.292;2023-04-03T00:01:16;3.60;99.90
1800;DHT22;919;48.274;12.292;2023-04-03T00:03:43;3.60;99.90
1800;DHT22;919;48.274;12.292;2023-04-03T00:06:11;3.60;99.90
1800;DHT22;919;48.274;12.292;2023-04-03T00:08:39;3.60;99.90
1800;DHT22;919;48.274;12.292;2023-04-03T00:11:06;3.50;99.90
1800;DHT22;919;48.274;12.292;2023-04-03T00:13:33;3.60;99.90
1800;DHT22;919;48.274;12.292;2023-04-03T00:16:00;3.60;99.90
1800;DHT22;919;48.274;12.292;2023-04-03T00:18:28;3.60;99.90
1800;DHT22;919;48.274;12.292;2023-04-03T00:20:55;3.60;99.90
1800;DHT22;919;48.274;12.292;2023-04-03T00:23:23;3.70;99.90
1800;DHT22;919;48.274;12.292;2023-04-03T00:25:50;3.70;99.90
1800;DHT22;919;48.274;12.292;2023-04-03T00:28:17;3.70;99.90
1800;DHT22;919;48.274;12.292;2023-04-03T00:30:44;3.70;99.90
1800;DHT22;919;48.274;12.292;2023-04-03T00:33:11;3.70;99.90
1800;DHT22;919;48.274;12.292;2023-04-03T00:35:39;3.80;99.90
1800;DHT22;919;48.274;12.292;2023-04-03T00:38:06;3.80;99.90
1800;DHT22;919;48.274;12.292;2023-04-03T00:40:36;3.80;99.90
1800;DHT22;919;48.274;12.292;2023-04-03T00:43:10;3.80;99.90
1800;DHT22;919;48.274;12.292;2023-04-03T00:45:39;3.80;99.90
1800;DHT22;919;48.274;12.292;2023-04-03T00:48:09;3.90;99.90
1800;DHT22;919;48.274;12.292;2023-04-03T00:50:39;3.90;99.90
1800;DHT22;919;48.274;12.292;2023-04-03T00:53:09;3.80;99.90
1800;DHT22;919;48.274;12.292;2023-04-03T00:55:39;3.80;99.90
1800;DHT22;919;48.274;12.292;2023-04-03T00:58:06;3.80;99.90
1800;DHT22;919;48.274;12.292;2023-04-03T01:00:34;3.80;99.90
1800;DHT22;919;48.274;12.292;2023-04-03T01:03:02;3.90;99.90
1800;DHT22;919;48.274;12.292;2023-04-03T01:05:29;3.80;99.90
1800;DHT22;919;48.274;12.292;2023-04-03T01:07:56;3.90;99.90
1800;DHT22;919;48.274;12.292;2023-04-03T01:10:24;3.80;99.90
1800;DHT22;919;48.274;12.292;2023-04-03T01:12:52;3.80;99.90
1800;DHT22;919;48.274;12.292;2023-04-03T01:15:21;3.80;99.90
1800;DHT22;919;48.274;12.292;2023-04-03T01:17:50;3.80;99.90
1800;DHT22;919;48.274;12.292;2023-04-03T01:20:50;3.80;99.90
1800;DHT22;919;48.274;12.292;2023-04-03T01:23:46;3.80;99.90
1800;DHT22;919;48.274;12.292;2023-04-03T01:26:15;3.70;99.90
1800;DHT22;919;48.274;12.292;2023-04-03T01:28:44;3.80;99.90
1800;DHT22;919;48.274;12.292;2023-04-03T01:31:15;3.80;99.90
1800;DHT22;919;48.274;12.292;2023-04-03T01:33:46;3.70;99.90
1800;DHT22;919;48.274;12.292;2023-04-03T01:36:16;3.70;99.90
1800;DHT22;919;48.274;12.292;2023-04-03T01:38:43;3.70;99.90
1800;DHT22;919;48.274;12.292;2023-04-03T01:41:10;3.80;99.90
1800;DHT22;919;48.274;12.292;2023-04-03T01:43:37;3.80;99.90
1800;DHT22;919;48.274;12.292;2023-04-03T01:46:04;3.80;99.90
1800;DHT22;919;48.274;12.292;2023-04-03T01:48:30;3.80;99.90
1800;DHT22;919;48.274;12.292;2023-04-03T01:50:58;3.70;99.90
1800;DHT22;919;48.274;12.292;2023-04-03T01:53:25;3.70;99.90
1800;DHT22;919;48.274;12.292;2023-04-03T01:55:52;3.70;99.90
1800;DHT22;919;48.274;12.292;2023-04-03T01:58:19;3.70;99.90
1800;DHT22;919;48.274;12.292;2023-04-03T02:00:46;3.70;99.90
1800;DHT22;919;48.274;12.292;2023-04-03T02:03:13;3.70;99.90
1800;DHT22;919;48.274;12.292;2023-04-03T02:05:40;3.70;99.90
1800;DHT22;919;48.274;12.292;2023-04-03T02:08:08;3.70;99.90
1800;DHT22;919;48.274;12.292;2023-04-03T02:10:35;3.70;99.90
1800;DHT22;919;48.274;12.292;2023-04-03T02:13:02;3.70;99.90
1800;DHT22;919;48.274;12.292;2023-04-03T02:15:29;3.70;99.90
1800;DHT22;919;48.274;12.292;2023-04-03T02:17:55;3.70;99.90
1800;DHT22;919;48.274;12.292;2023-04-03T02:20:22;3.70;99.90
1800;DHT22;919;48.274;12.292;2023-04-03T02:22:49;3.70;99.90
1800;DHT22;919;48.274;12.292;2023-04-03T02:25:17;3.70;99.90
1800;DHT22;919;48.274;12.292;2023-04-03T02:27:44;3.60;99.90
1800;DHT22;919;48.274;12.292;2023-04-03T02:30:11;3.50;99.90
1800;DHT22;919;48.274;12.292;2023-04-03T02:32:38;3.50;99.90
1800;DHT22;919;48.274;12.292;2023-04-03T02:35:06;3.50;99.90
1800;DHT22;919;48.274;12.292;2023-04-03T02:37:33;3.50;99.90
1800;DHT22;919;48.274;12.292;2023-04-03T02:40:00;3.50;99.90
1800;DHT22;919;48.274;12.292;2023-04-03T02:42:28;3.60;99.90
1800;DHT22;919;48.274;12.292;2023-04-03T02:44:55;3.60;99.90
1800;DHT22;919;48.274;12.292;2023-04-03T02:47:22;3.60;99.90
1800;DHT22;919;48.274;12.292;2023-04-03T02:49:48;3.60;99.90
1800;DHT22;919;48.274;12.292;2023-04-03T02:52:16;3.70;99.90
1800;DHT22;919;48.274;12.292;2023-04-03T02:54:42;3.70;99.90
1800;DHT22;919;48.274;12.292;2023-04-03T02:57:09;3.60;99.90
1800;DHT22;919;48.274;12.292;2023-04-03T02:59:37;3.60;99.90
1800;DHT22;919;48.274;12.292;2023-04-03T03:02:06;3.60;99.90
1800;DHT22;919;48.274;12.292;2023-04-03T03:04:32;3.60;99.90
1800;DHT22;919;48.274;12.292;2023-04-03T03:06:59;3.50;99.90
1800;DHT22;919;48.274;12.292;2023-04-03T03:09:26;3.40;99.90
1800;DHT22;919;48.274;12.292;2023-04-03T03:11:53;3.50;99.90
1800;DHT22;919;48.274;12.292;2023-04-03T03:14:19;3.50;99.90
1800;DHT22;919;48.274;12.292;2023-04-03T03:16:47;3.50;99.90
1800;DHT22;919;48.274;12.292;2023-04-03T03:19:14;3.50;99.90
1800;DHT22;919;48.274;12.292;2023-04-03T03:21:41;3.50;99.90
1800;DHT22;919;48.274;12.292;2023-04-03T03:24:08;3.50;99.90
1800;DHT22;919;48.274;12.292;2023-04-03T03:26:35;3.60;99.90
1800;DHT22;919;48.274;12.292;2023-04-03T03:29:02;3.60;99.90
1800;DHT22;919;48.274;12.292;2023-04-03T03:31:29;3.60;99.90
1800;DHT22;919;48.274;12.292;2023-04-03T03:33:57;3.50;99.90
1800;DHT22;919;48.274;12.292;2023-04-03T03:36:24;3.50;99.90
1800;DHT22;919;48.274;12.292;2023-04-03T03:38:50;3.50;99.90
1800;DHT22;919;48.274;12.292;2023-04-03T03:41:17;3.50;99.90
1800;DHT22;919;48.274;12.292;2023-04-03T03:43:44;3.50;99.90
1800;DHT22;919;48.274;12.292;2023-04-03T03:46:11;3.50;99.90
1800;DHT22;919;48.274;12.292;2023-04-03T03:48:37;3.50;99.90
1800;DHT22;919;48.274;12.292;2023-04-03T03:51:06;3.50;99.90
1800;DHT22;919;48.274;12.292;2023-04-03T03:53:32;3.50;99.90
1800;DHT22;919;48.274;12.292;2023-04-03T03:55:59;3.40;99.90
1800;DHT22;919;48.274;12.292;2023-04-03T03:58:26;3.40;99.90
1800;DHT22;919;48.274;12.292;2023-04-03T04:00:53;3.40;99.90
1800;DHT22;919;48.274;12.292;2023-04-03T04:03:19;3.40;99.90
1800;DHT22;919;48.274;12.292;2023-04-03T04:05:46;3.30;99.90
1800;DHT22;919;48.274;12.292;2023-04-03T04:08:14;3.30;99.90
1800;DHT22;919;48.274;12.292;2023-04-03T04:10:41;3.30;99.90
1800;DHT22;919;48.274;12.292;2023-04-03T04:13:07;3.30;99.90
1800;DHT22;919;48.274;12.292;2023-04-03T04:15:34;3.30;99.90
1800;DHT22;919;48.274;12.292;2023-04-03T04:18:01;3.20;99.90
1800;DHT22;919;48.274;12.292;2023-04-03T04:20:27;3.20;99.90
1800;DHT22;919;48.274;12.292;2023-04-03T04:22:54;3.20;99.90
1800;DHT22;919;48.274;12.292;2023-04-03T04:25:22;3.20;99.90
1800;DHT22;919;48.274;12.292;2023-04-03T04:27:50;3.20;99.90
1800;DHT22;919;48.274;12.292;2023-04-03T04:30:17;3.20;99.90
1800;DHT22;919;48.274;12.292;2023-04-03T04:32:43;3.30;99.90
1800;DHT22;919;48.274;12.292;2023-04-03T04:35:11;3.30;99.90
1800;DHT22;919;48.274;12.292;2023-04-03T04:37:37;3.30;99.90
1800;DHT22;919;48.274;12.292;2023-04-03T04:40:05;3.30;99.90
1800;DHT22;919;48.274;12.292;2023-04-03T04:42:33;3.30;99.90
1800;DHT22;919;48.274;12.292;2023-04-03T04:45:00;3.30;99.90
1800;DHT22;919;48.274;12.292;2023-04-03T04:47:28;3.30;99.90
1800;DHT22;919;48.274;12.292;2023-04-03T04:49:55;3.30;99.90
1800;DHT22;919;48.274;12.292;2023-04-03T04:52:22;3.20;99.90
1800;DHT22;919;48.274;12.292;2023-04-03T04:54:48;3.20;99.90
1800;DHT22;919;48.274;12.292;2023-04-03T04:57:15;3.20;99.90
1800;DHT22;919;48.274;12.292;2023-04-03T04:59:43;3.20;99.90
1800;DHT22;919;48.274;12.292;2023-04-03T05:02:10;3.20;99.90
1800;DHT22;919;48.274;12.292;2023-04-03T05:04:37;3.20;99.90
1800;DHT22;919;48.274;12.292;2023-04-03T05:07:04;3.30;99.90
1800;DHT22;919;48.274;12.292;2023-04-03T05:09:30;3.30;99.90
1800;DHT22;919;48.274;12.292;2023-04-03T05:11:57;3.30;99.90
1800;DHT22;919;48.274;12.292;2023-04-03T05:14:24;3.30;99.90
1800;DHT22;919;48.274;12.292;2023-04-03T05:16:52;3.20;99.90
1800;DHT22;919;48.274;12.292;2023-04-03T05:19:19;3.30;99.90
1800;DHT22;919;48.274;12.292;2023-04-03T05:21:46;3.20;99.90
1800;DHT22;919;48.274;12.292;2023-04-03T05:24:13;3.30;99.90
1800;DHT22;919;48.274;12.292;2023-04-03T05:26:40;3.30;99.90
1800;DHT22;919;48.274;12.292;2023-04-03T05:29:07;3.40;99.90
1800;DHT22;919;48.274;12.292;2023-04-03T05:31:33;3.40;99.90
1800;DHT22;919;48.274;12.292;2023-04-03T05:34:02;3.40;99.90
1800;DHT22;919;48.274;12.292;2023-04-03T05:36:29;3.50;99.90
1800;DHT22;919;48.274;12.292;2023-04-03T05:38:56;3.50;99.90
1800;DHT22;919;48.274;12.292;2023-04-03T05:41:23;3.50;99.90
1800;DHT22;919;48.274;12.292;2023-04-03T05:43:50;3.50;99.90
1800;DHT22;919;48.274;12.292;2023-04-03T05:46:19;3.60;99.90
1800;DHT22;919;48.274;12.292;2023-04-03T05:48:46;3.60;99.90
1800;DHT22;919;48.274;12.292;2023-04-03T05:51:16;3.60;99.90
1800;DHT22;919;48.274;12.292;2023-04-03T05:53:44;3.60;99.90
1800;DHT22;919;48.274;12.292;2023-04-03T05:56:11;3.60;99.90
1800;DHT22;919;48.274;12.292;2023-04-03T05:58:38;3.60;99.90
1800;DHT22;919;48.274;12.292;2023-04-03T06:01:05;3.60;99.90
1800;DHT22;919;48.274;12.292;2023-04-03T06:03:31;3.50;99.90
1800;DHT22;919;48.274;12.292;2023-04-03T06:05:58;3.60;99.90
1800;DHT22;919;48.274;12.292;2023-04-03T06:08:27;3.60;99.90
1800;DHT22;919;48.274;12.292;2023-04-03T06:10:53;3.60;99.90
1800;DHT22;919;48.274;12.292;2023-04-03T06:13:20;3.60;99.90
1800;DHT22;919;48.274;12.292;2023-04-03T06:15:47;3.60;99.90
1800;DHT22;919;48.274;12.292;2023-04-03T06:18:14;3.60;99.90
1800;DHT22;919;48.274;12.292;2023-04-03T06:20:40;3.50;99.90
1800;DHT22;919;48.274;12.292;2023-04-03T06:23:07;3.50;99.90
1800;DHT22;919;48.274;12.292;2023-04-03T06:25:35;3.60;99.90
1800;DHT22;919;48.274;12.292;2023-04-03T06:28:02;3.70;99.90
1800;DHT22;919;48.274;12.292;2023-04-03T06:30:29;3.80;99.90
1800;DHT22;919;48.274;12.292;2023-04-03T06:32:55;3.80;99.90
1800;DHT22;919;48.274;12.292;2023-04-03T06:35:22;3.90;99.90
1800;DHT22;919;48.274;12.292;2023-04-03T06:37:50;3.90;99.90
1800;DHT22;919;48.274;12.292;2023-04-03T06:40:19;4.00;99.90
1800;DHT22;919;48.274;12.292;2023-04-03T06:42:49;4.00;99.90
1800;DHT22;919;48.274;12.292;2023-04-03T06:45:15;4.10;99.90
1800;DHT22;919;48.274;12.292;2023-04-03T06:47:42;4.00;99.90
1800;DHT22;919;48.274;12.292;2023-04-03T06:50:10;4.10;99.90
1800;DHT22;919;48.274;12.292;2023-04-03T06:52:39;4.10;99.90
1800;DHT22;919;48.274;12.292;2023-04-03T06:55:07;4.10;99.90
1800;DHT22;919;48.274;12.292;2023-04-03T06:57:34;4.20;99.90
1800;DHT22;919;48.274;12.292;2023-04-03T07:00:04;4.20;99.90
1800;DHT22;919;48.274;12.292;2023-04-03T07:02:32;4.20;99.90
1800;DHT22;919;48.274;12.292;2023-04-03T07:04:59;4.20;99.90
1800;DHT22;919;48.274;12.292;2023-04-03T07:07:26;4.10;99.90
1800;DHT22;919;48.274;12.292;2023-04-03T07:09:53;4.10;99.90
1800;DHT22;919;48.274;12.292;2023-04-03T07:12:20;4.10;99.90
1800;DHT22;919;48.274;12.292;2023-04-03T07:14:46;4.10;99.90
1800;DHT22;919;48.274;12.292;2023-04-03T07:17:14;4.10;99.90
1800;DHT22;919;48.274;12.292;2023-04-03T07:19:41;4.10;99.90
1800;DHT22;919;48.274;12.292;2023-04-03T07:22:08;4.10;99.90
1800;DHT22;919;48.274;12.292;2023-04-03T07:24:36;4.20;99.90
1800;DHT22;919;48.274;12.292;2023-04-03T07:27:03;4.20;99.90
1800;DHT22;919;48.274;12.292;2023-04-03T07:29:30;4.20;99.90
1800;DHT22;919;48.274;12.292;2023-04-03T07:31:57;4.30;99.90
1800;DHT22;919;48.274;12.292;2023-04-03T07:34:25;4.30;99.90
1800;DHT22;919;48.274;12.292;2023-04-03T07:36:52;4.20;99.90
1800;DHT22;919;48.274;12.292;2023-04-03T07:39:19;4.30;99.90
1800;DHT22;919;48.274;12.292;2023-04-03T07:41:45;4.30;99.90
1800;DHT22;919;48.274;12.292;2023-04-03T07:44:12;4.40;99.90
1800;DHT22;919;48.274;12.292;2023-04-03T07:46:40;4.40;99.90
1800;DHT22;919;48.274;12.292;2023-04-03T07:49:07;4.40;99.90
1800;DHT22;919;48.274;12.292;2023-04-03T07:51:36;4.30;99.90
1800;DHT22;919;48.274;12.292;2023-04-03T07:54:02;4.40;99.90
1800;DHT22;919;48.274;12.292;2023-04-03T07:56:30;4.50;99.90
1800;DHT22;919;48.274;12.292;2023-04-03T07:58:57;4.50;99.90
1800;DHT22;919;48.274;12.292;2023-04-03T08:01:24;4.60;99.90
1800;DHT22;919;48.274;12.292;2023-04-03T08:03:51;4.70;99.90
1800;DHT22;919;48.274;12.292;2023-04-03T08:06:17;4.70;99.90
1800;DHT22;919;48.274;12.292;2023-04-03T08:08:45;4.80;99.90
1800;DHT22;919;48.274;12.292;2023-04-03T08:11:12;4.80;99.90
1800;DHT22;919;48.274;12.292;2023-04-03T08:13:40;4.80;99.90
1800;DHT22;919;48.274;12.292;2023-04-03T08:16:10;5.00;99.90
1800;DHT22;919;48.274;12.292;2023-04-03T08:18:37;5.00;99.90
1800;DHT22;919;48.274;12.292;2023-04-03T08:21:06;5.00;99.90
1800;DHT22;919;48.274;12.292;2023-04-03T08:23:33;5.10;99.90
1800;DHT22;919;48.274;12.292;2023-04-03T08:26:07;5.30;99.90
1800;DHT22;919;48.274;12.292;2023-04-03T08:28:34;5.30;99.90
1800;DHT22;919;48.274;12.292;2023-04-03T08:31:05;5.30;99.90
1800;DHT22;919;48.274;12.292;2023-04-03T08:33:32;5.40;99.90
1800;DHT22;919;48.274;12.292;2023-04-03T08:36:01;5.60;99.90
1800;DHT22;919;48.274;12.292;2023-04-03T08:38:28;5.70;99.90
1800;DHT22;919;48.274;12.292;2023-04-03T08:41:07;5.80;99.90
1800;DHT22;919;48.274;12.292;2023-04-03T08:43:40;5.70;99.90
1800;DHT22;919;48.274;12.292;2023-04-03T08:46:14;5.70;99.90
1800;DHT22;919;48.274;12.292;2023-04-03T08:48:43;5.60;99.90
1800;DHT22;919;48.274;12.292;2023-04-03T08:51:13;5.60;99.90
1800;DHT22;919;48.274;12.292;2023-04-03T08:53:42;5.50;99.90
1800;DHT22;919;48.274;12.292;2023-04-03T08:56:15;5.50;99.90
1800;DHT22;919;48.274;12.292;2023-04-03T08:59:06;5.50;99.90
1800;DHT22;919;48.274;12.292;2023-04-03T09:01:41;5.40;99.90
1800;DHT22;919;48.274;12.292;2023-04-03T09:04:11;5.50;99.90
1800;DHT22;919;48.274;12.292;2023-04-03T09:06:40;5.50;99.90
1800;DHT22;919;48.274;12.292;2023-04-03T09:09:14;5.60;99.90
1800;DHT22;919;48.274;12.292;2023-04-03T09:11:50;5.60;99.90
1800;DHT22;919;48.274;12.292;2023-04-03T09:14:26;5.50;99.90
1800;DHT22;919;48.274;12.292;2023-04-03T09:16:59;5.40;99.90
1800;DHT22;919;48.274;12.292;2023-04-03T09:19:33;5.10;99.90
1800;DHT22;919;48.274;12.292;2023-04-03T09:22:12;4.90;99.90
1800;DHT22;919;48.274;12.292;2023-04-03T09:24:41;4.80;99.90
1800;DHT22;919;48.274;12.292;2023-04-03T09:27:13;4.90;99.90
1800;DHT22;919;48.274;12.292;2023-04-03T09:29:41;4.90;99.90
1800;DHT22;919;48.274;12.292;2023-04-03T09:32:21;4.90;99.90
1800;DHT22;919;48.274;12.292;2023-04-03T09:34:49;4.90;99.90
1800;DHT22;919;48.274;12.292;2023-04-03T09:37:35;5.00;99.90
1800;DHT22;919;48.274;12.292;2023-04-03T09:40:05;5.00;99.90
1800;DHT22;919;48.274;12.292;2023-04-03T09:42:46;5.10;99.90
1800;DHT22;919;48.274;12.292;2023-04-03T09:45:24;5.10;99.90
1800;DHT22;919;48.274;12.292;2023-04-03T09:48:05;4.90;99.90
1800;DHT22;919;48.274;12.292;2023-04-03T09:50:33;5.00;99.90
1800;DHT22;919;48.274;12.292;2023-04-03T09:53:05;5.00;99.90
1800;DHT22;919;48.274;12.292;2023-04-03T09:55:33;5.00;99.90
1800;DHT22;919;48.274;12.292;2023-04-03T09:58:25;4.90;99.90
1800;DHT22;919;48.274;12.292;2023-04-03T10:00:54;4.60;99.90
1800;DHT22;919;48.274;12.292;2023-04-03T10:03:25;4.40;99.90
1800;DHT22;919;48.274;12.292;2023-04-03T10:05:52;4.20;99.90
1800;DHT22;919;48.274;12.292;2023-04-03T10:08:23;4.20;99.90
1800;DHT22;919;48.274;12.292;2023-04-03T10:11:10;4.10;99.90
1800;DHT22;919;48.274;12.292;2023-04-03T10:13:52;4.20;99.90
1800;DHT22;919;48.274;12.292;2023-04-03T10:16:21;4.20;99.90
1800;DHT22;919;48.274;12.292;2023-04-03T10:19:00;4.30;99.90
1800;DHT22;919;48.274;12.292;2023-04-03T10:21:35;4.40;99.90
1800;DHT22;919;48.274;12.292;2023-04-03T10:24:10;4.50;99.90
1800;DHT22;919;48.274;12.292;2023-04-03T10:26:45;4.70;99.90
1800;DHT22;919;48.274;12.292;2023-04-03T10:29:22;4.70;99.90
1800;DHT22;919;48.274;12.292;2023-04-03T10:31:58;4.70;99.90
1800;DHT22;919;48.274;12.292;2023-04-03T10:34:30;4.90;99.90
1800;DHT22;919;48.274;12.292;2023-04-03T10:37:04;5.00;99.90
1800;DHT22;919;48.274;12.292;2023-04-03T10:39:37;5.10;99.90
1800;DHT22;919;48.274;12.292;2023-04-03T10:42:08;5.20;99.90
1800;DHT22;919;48.274;12.292;2023-04-03T10:44:59;5.20;99.90
1800;DHT22;919;48.274;12.292;2023-04-03T10:47:34;5.10;99.90
1800;DHT22;919;48.274;12.292;2023-04-03T10:50:13;5.00;99.90
1800;DHT22;919;48.274;12.292;2023-04-03T10:52:47;5.00;99.90
1800;DHT22;919;48.274;12.292;2023-04-03T10:55:24;5.00;99.90
1800;DHT22;919;48.274;12.292;2023-04-03T10:57:56;5.10;99.90
1800;DHT22;919;48.274;12.292;2023-04-03T11:00:29;5.10;99.90
1800;DHT22;919;48.274;12.292;2023-04-03T11:02:59;5.20;99.90
1800;DHT22;919;48.274;12.292;2023-04-03T11:05:31;5.30;99.90
1800;DHT22;919;48.274;12.292;2023-04-03T11:08:05;5.40;99.90
1800;DHT22;919;48.274;12.292;2023-04-03T11:10:37;5.60;99.90
1800;DHT22;919;48.274;12.292;2023-04-03T11:13:11;5.60;99.90
1800;DHT22;919;48.274;12.292;2023-04-03T11:15:42;5.80;99.90
1800;DHT22;919;48.274;12.292;2023-04-03T11:18:13;5.90;99.90
1800;DHT22;919;48.274;12.292;2023-04-03T11:20:46;5.80;99.90
1800;DHT22;919;48.274;12.292;2023-04-03T11:23:19;5.70;99.90
1800;DHT22;919;48.274;12.292;2023-04-03T11:25:51;5.90;99.90
1800;DHT22;919;48.274;12.292;2023-04-03T11:28:19;5.90;99.90
1800;DHT22;919;48.274;12.292;2023-04-03T11:30:51;6.00;99.90
1800;DHT22;919;48.274;12.292;2023-04-03T11:33:31;6.10;99.90
1800;DHT22;919;48.274;12.292;2023-04-03T11:36:07;6.10;99.90
1800;DHT22;919;48.274;12.292;2023-04-03T11:38:38;6.30;99.90
1800;DHT22;919;48.274;12.292;2023-04-03T11:41:09;6.60;99.90
1800;DHT22;919;48.274;12.292;2023-04-03T11:43:41;6.90;99.90
1800;DHT22;919;48.274;12.292;2023-04-03T11:46:10;6.90;99.90
1800;DHT22;919;48.274;12.292;2023-04-03T11:48:49;6.70;99.90
1800;DHT22;919;48.274;12.292;2023-04-03T11:54:42;7.40;99.90
1800;DHT22;919;48.274;12.292;2023-04-03T11:57:42;7.80;99.90
1800;DHT22;919;48.274;12.292;2023-04-03T12:00:51;8.10;99.90
1800;DHT22;919;48.274;12.292;2023-04-03T12:03:56;8.20;99.90
1800;DHT22;919;48.274;12.292;2023-04-03T12:10:16;7.80;99.90
1800;DHT22;919;48.274;12.292;2023-04-03T12:12:56;7.60;99.90
1800;DHT22;919;48.274;12.292;2023-04-03T12:15:49;7.30;99.90
1800;DHT22;919;48.274;12.292;2023-04-03T12:18:41;6.90;99.90
1800;DHT22;919;48.274;12.292;2023-04-03T12:21:09;6.60;99.90
1800;DHT22;919;48.274;12.292;2023-04-03T12:23:36;6.60;99.90
1800;DHT22;919;48.274;12.292;2023-04-03T12:26:24;6.50;99.90
1800;DHT22;919;48.274;12.292;2023-04-03T12:28:53;6.60;99.90
1800;DHT22;919;48.274;12.292;2023-04-03T12:31:24;6.70;99.90
1800;DHT22;919;48.274;12.292;2023-04-03T12:34:09;6.70;99.90
1800;DHT22;919;48.274;12.292;2023-04-03T12:36:46;6.70;99.90
1800;DHT22;919;48.274;12.292;2023-04-03T12:42:21;6.60;99.90
1800;DHT22;919;48.274;12.292;2023-04-03T12:44:56;6.60;99.90
1800;DHT22;919;48.274;12.292;2023-04-03T12:47:29;6.50;99.90
1800;DHT22;919;48.274;12.292;2023-04-03T12:50:00;6.40;99.90
1800;DHT22;919;48.274;12.292;2023-04-03T12:52:33;6.40;99.90
1800;DHT22;919;48.274;12.292;2023-04-03T12:55:02;6.60;99.90
1800;DHT22;919;48.274;12.292;2023-04-03T12:57:31;6.70;99.90
1800;DHT22;919;48.274;12.292;2023-04-03T12:59:58;7.00;99.90
1800;DHT22;919;48.274;12.292;2023-04-03T13:02:27;7.50;99.90
1800;DHT22;919;48.274;12.292;2023-04-03T13:04:57;7.90;99.90
1800;DHT22;919;48.274;12.292;2023-04-03T13:07:29;8.10;99.90
1800;DHT22;919;48.274;12.292;2023-04-03T13:09:59;8.20;99.90
1800;DHT22;919;48.274;12.292;2023-04-03T13:12:26;8.40;99.90
1800;DHT22;919;48.274;12.292;2023-04-03T13:14:53;8.50;99.90
1800;DHT22;919;48.274;12.292;2023-04-03T13:17:21;8.20;99.90
1800;DHT22;919;48.274;12.292;2023-04-03T13:19:48;8.40;99.90
1800;DHT22;919;48.274;12.292;2023-04-03T13:22:24;8.70;99.90
1800;DHT22;919;48.274;12.292;2023-04-03T13:24:55;8.80;99.90
1800;DHT22;919;48.274;12.292;2023-04-03T13:27:23;8.80;99.90
1800;DHT22;919;48.274;12.292;2023-04-03T13:29:52;8.40;99.90
1800;DHT22;919;48.274;12.292;2023-04-03T13:32:21;8.00;99.90
1800;DHT22;919;48.274;12.292;2023-04-03T13:34:49;8.00;99.90
1800;DHT22;919;48.274;12.292;2023-04-03T13:37:21;7.90;99.90
1800;DHT22;919;48.274;12.292;2023-04-03T13:40:00;7.80;99.90
1800;DHT22;919;48.274;12.292;2023-04-03T13:42:29;7.70;99.90
1800;DHT22;919;48.274;12.292;2023-04-03T13:45:16;7.90;99.90
1800;DHT22;919;48.274;12.292;2023-04-03T13:47:44;7.70;99.90
1800;DHT22;919;48.274;12.292;2023-04-03T13:50:17;7.40;99.90
1800;DHT22;919;48.274;12.292;2023-04-03T13:52:52;7.20;99.90
1800;DHT22;919;48.274;12.292;2023-04-03T13:55:24;7.40;99.90
1800;DHT22;919;48.274;12.292;2023-04-03T13:57:54;7.30;99.90
1800;DHT22;919;48.274;12.292;2023-04-03T14:00:36;7.40;99.90
1800;DHT22;919;48.274;12.292;2023-04-03T14:03:13;7.70;99.90
1800;DHT22;919;48.274;12.292;2023-04-03T14:05:40;7.80;99.90
1800;DHT22;919;48.274;12.292;2023-04-03T14:08:07;7.80;99.90
1800;DHT22;919;48.274;12.292;2023-04-03T14:10:37;7.50;99.90
1800;DHT22;919;48.274;12.292;2023-04-03T14:13:04;7.20;99.90
1800;DHT22;919;48.274;12.292;2023-04-03T14:15:31;7.30;99.90
1800;DHT22;919;48.274;12.292;2023-04-03T14:17:59;7.60;99.90
1800;DHT22;919;48.274;12.292;2023-04-03T14:20:26;7.70;99.90
1800;DHT22;919;48.274;12.292;2023-04-03T14:22:54;7.70;99.90
1800;DHT22;919;48.274;12.292;2023-04-03T14:25:21;7.20;99.90
1800;DHT22;919;48.274;12.292;2023-04-03T14:27:52;6.80;99.90
1800;DHT22;919;48.274;12.292;2023-04-03T14:30:22;6.80;99.90
1800;DHT22;919;48.274;12.292;2023-04-03T14:32:50;6.60;99.90
1800;DHT22;919;48.274;12.292;2023-04-03T14:35:18;6.30;99.90
1800;DHT22;919;48.274;12.292;2023-04-03T14:37:45;6.40;99.90
1800;DHT22;919;48.274;12.292;2023-04-03T14:40:14;6.20;99.90
1800;DHT22;919;48.274;12.292;2023-04-03T14:42:41;6.10;99.90
1800;DHT22;919;48.274;12.292;2023-04-03T14:45:12;6.20;99.90
1800;DHT22;919;48.274;12.292;2023-04-03T14:47:42;6.30;99.90
1800;DHT22;919;48.274;12.292;2023-04-03T14:50:13;6.50;99.90
1800;DHT22;919;48.274;12.292;2023-04-03T14:52:41;6.60;99.90
1800;DHT22;919;48.274;12.292;2023-04-03T14:55:08;7.00;99.90
1800;DHT22;919;48.274;12.292;2023-04-03T14:57:36;7.10;99.90
1800;DHT22;919;48.274;12.292;2023-04-03T15:00:07;6.80;99.90
1800;DHT22;919;48.274;12.292;2023-04-03T15:02:40;6.70;99.90
1800;DHT22;919;48.274;12.292;2023-04-03T15:05:09;6.30;99.90
1800;DHT22;919;48.274;12.292;2023-04-03T15:07:38;6.30;99.90
1800;DHT22;919;48.274;12.292;2023-04-03T15:10:15;6.20;99.90
1800;DHT22;919;48.274;12.292;2023-04-03T15:12:43;6.10;99.90
1800;DHT22;919;48.274;12.292;2023-04-03T15:15:10;6.50;99.90
1800;DHT22;919;48.274;12.292;2023-04-03T15:17:37;6.90;99.90
1800;DHT22;919;48.274;12.292;2023-04-03T15:20:12;7.20;99.90
1800;DHT22;919;48.274;12.292;2023-04-03T15:22:39;7.30;99.90
1800;DHT22;919;48.274;12.292;2023-04-03T15:25:07;7.10;99.90
1800;DHT22;919;48.274;12.292;2023-04-03T15:27:34;6.60;99.90
1800;DHT22;919;48.274;12.292;2023-04-03T15:30:02;6.30;99.90
1800;DHT22;919;48.274;12.292;2023-04-03T15:32:29;6.30;99.90
1800;DHT22;919;48.274;12.292;2023-04-03T15:34:56;6.40;99.90
1800;DHT22;919;48.274;12.292;2023-04-03T15:37:25;6.60;99.90
1800;DHT22;919;48.274;12.292;2023-04-03T15:39:51;6.90;99.90
1800;DHT22;919;48.274;12.292;2023-04-03T15:42:18;7.00;99.90
1800;DHT22;919;48.274;12.292;2023-04-03T15:44:45;7.10;99.90
1800;DHT22;919;48.274;12.292;2023-04-03T15:47:12;6.90;99.90
1800;DHT22;919;48.274;12.292;2023-04-03T15:49:39;6.60;99.90
1800;DHT22;919;48.274;12.292;2023-04-03T15:52:06;6.40;99.90
1800;DHT22;919;48.274;12.292;2023-04-03T15:54:34;6.30;99.90
1800;DHT22;919;48.274;12.292;2023-04-03T15:57:00;6.20;99.90
1800;DHT22;919;48.274;12.292;2023-04-03T15:59:27;6.10;99.90
1800;DHT22;919;48.274;12.292;2023-04-03T16:01:56;6.00;99.90
1800;DHT22;919;48.274;12.292;2023-04-03T16:04:23;5.90;99.90
1800;DHT22;919;48.274;12.292;2023-04-03T16:06:50;5.70;99.90
1800;DHT22;919;48.274;12.292;2023-04-03T16:09:17;5.70;99.90
1800;DHT22;919;48.274;12.292;2023-04-03T16:11:45;5.60;99.90
1800;DHT22;919;48.274;12.292;2023-04-03T16:14:12;5.50;99.90
1800;DHT22;919;48.274;12.292;2023-04-03T16:16:39;5.50;99.90
1800;DHT22;919;48.274;12.292;2023-04-03T16:19:06;5.50;99.90
1800;DHT22;919;48.274;12.292;2023-04-03T16:21:33;5.50;99.90
1800;DHT22;919;48.274;12.292;2023-04-03T16:24:01;5.50;99.90
1800;DHT22;919;48.274;12.292;2023-04-03T16:26:28;5.50;99.90
1800;DHT22;919;48.274;12.292;2023-04-03T16:28:56;5.40;99.90
1800;DHT22;919;48.274;12.292;2023-04-03T16:31:24;5.30;99.90
1800;DHT22;919;48.274;12.292;2023-04-03T16:33:51;5.30;99.90
1800;DHT22;919;48.274;12.292;2023-04-03T16:36:18;5.30;99.90
1800;DHT22;919;48.274;12.292;2023-04-03T16:38:45;5.30;99.90
1800;DHT22;919;48.274;12.292;2023-04-03T16:41:11;5.20;99.90
1800;DHT22;919;48.274;12.292;2023-04-03T16:43:38;5.20;99.90